Time;durP1;ratioP1;P1;durP2;ratioP2;P2;SDS_P1;SDS_P2;PMS_P1;PMS_P2;Temp;Humidity;BMP_temperature;BMP_pressure;BME280_temperature;BME280_humidity;BME280_pressure;Samples;Min_cycle;Max_cycle;Signal;HPM_P1;HPM_P2
2023/10/08 00:00:49;;;;;;;10.95;3.38;;;;;;;;;;5094922;28;20065;-68
2023/10/08 00:03:20;;;;;;;5.55;2.85;;;;;;;;;;5095307;28;20020;-68
2023/10/08 00:05:46;;;;;;;;;;;;;;;;;;5095705;28;20069;-68
2023/10/08 00:08:16;;;;;;;11.95;3.25;;;;;;;;;;5095336;28;19915;-68
2023/10/08 00:10:44;;;;;;;9.68;3.30;;;;;;;;;;5095438;28;20024;-67
2023/10/08 00:13:12;;;;;;;15.05;3.05;;;;;;;;;;5095209;28;20381;-67
2023/10/08 00:15:52;;;;;;;6.90;2.97;;;;;;;;;;5094366;28;20026;-67
2023/10/08 00:18:22;;;;;;;7.53;2.97;;;;;;;;;;5095410;28;20025;-67
2023/10/08 00:21:15;;;;;;;6.97;2.88;;;;;;;;;;5095136;28;20431;-68
2023/10/08 00:23:38;;;;;;;6.00;2.83;;;;;;;;;;5094279;28;20028;-67
2023/10/08 00:26:06;;;;;;;6.68;2.72;;;;;;;;;;5094952;28;20031;-67
2023/10/08 00:28:32;;;;;;;5.28;2.70;;;;;;;;;;5094383;28;20020;-68
2023/10/08 00:31:06;;;;;;;7.30;3.00;;;;;;;;;;5094714;28;20037;-68
2023/10/08 00:33:32;;;;;;;8.32;2.70;;;;;;;;;;5093810;28;20032;-67
2023/10/08 00:35:58;;;;;;;7.57;3.22;;;;;;;;;;5094698;28;20362;-68
2023/10/08 00:38:31;;;;;;;6.35;2.95;;;;;;;;;;5094741;28;20028;-68
2023/10/08 00:41:00;;;;;;;5.90;2.88;;;;;;;;;;5094846;28;20024;-67
2023/10/08 00:43:31;;;;;;;5.15;2.47;;;;;;;;;;5094039;28;20022;-67
2023/10/08 00:45:59;;;;;;;6.57;3.10;;;;;;;;;;5094648;28;20034;-67
2023/10/08 00:48:29;;;;;;;5.55;2.60;;;;;;;;;;5094849;28;20030;-68
2023/10/08 00:51:14;;;;;;;5.57;2.97;;;;;;;;;;5094786;28;20061;-67
2023/10/08 00:53:43;;;;;;;6.97;2.70;;;;;;;;;;5094349;28;20089;-67
2023/10/08 00:56:14;;;;;;;9.20;2.80;;;;;;;;;;5094297;28;20020;-67
2023/10/08 00:58:42;;;;;;;8.77;2.85;;;;;;;;;;5094019;28;20027;-67
2023/10/08 01:01:12;;;;;;;4.78;2.50;;;;;;;;;;5094610;28;20017;-67
2023/10/08 01:03:44;;;;;;;7.10;2.75;;;;;;;;;;5094490;28;20047;-68
2023/10/08 01:06:12;;;;;;;7.07;2.80;;;;;;;;;;5094328;28;20024;-67
2023/10/08 01:08:47;;;;;;;8.70;3.10;;;;;;;;;;5094566;28;20076;-67
2023/10/08 01:11:17;;;;;;;5.47;2.70;;;;;;;;;;5094334;28;20046;-67
2023/10/08 01:13:45;;;;;;;4.20;2.38;;;;;;;;;;5093796;28;20016;-67
2023/10/08 01:16:12;;;;;;;5.60;2.80;;;;;;;;;;5093913;28;20032;-67
2023/10/08 01:18:43;;;;;;;5.45;2.67;;;;;;;;;;5093915;28;20032;-67
2023/10/08 01:21:34;;;;;;;7.53;2.90;;;;;;;;;;5093755;28;20017;-68
2023/10/08 01:23:55;;;;;;;5.38;2.88;;;;;;;;;;5093735;28;20020;-67
2023/10/08 01:26:22;;;;;;;5.80;2.80;;;;;;;;;;5094122;28;20034;-67
2023/10/08 01:28:49;;;;;;;5.30;2.78;;;;;;;;;;5093694;28;20024;-67
2023/10/08 01:31:15;;;;;;;6.30;3.60;;;;;;;;;;5094172;28;20081;-67
2023/10/08 01:33:50;;;;;;;6.72;3.10;;;;;;;;;;5093579;28;20408;-67
2023/10/08 01:36:16;;;;;;;7.90;2.90;;;;;;;;;;5093630;28;20016;-68
2023/10/08 01:38:43;;;;;;;4.68;2.70;;;;;;;;;;5093414;28;20027;-68
2023/10/08 01:41:18;;;;;;;5.25;2.58;;;;;;;;;;5093174;28;20028;-68
2023/10/08 01:43:45;;;;;;;7.25;2.90;;;;;;;;;;5093257;28;20032;-67
2023/10/08 01:46:12;;;;;;;7.13;2.95;;;;;;;;;;5093636;28;20038;-67
2023/10/08 01:48:39;;;;;;;4.72;2.45;;;;;;;;;;5093274;28;20024;-68
2023/10/08 01:51:09;;;;;;;6.03;2.85;;;;;;;;;;5093352;28;20012;-68
2023/10/08 01:53:36;;;;;;;6.50;2.90;;;;;;;;;;5093198;28;20043;-67
2023/10/08 01:56:04;;;;;;;6.93;2.90;;;;;;;;;;5092858;28;20039;-67
2023/10/08 01:58:30;;;;;;;6.55;3.40;;;;;;;;;;5093402;28;20034;-68
2023/10/08 02:01:00;;;;;;;9.15;3.42;;;;;;;;;;5093125;28;20043;-68
2023/10/08 02:03:29;;;;;;;7.25;2.50;;;;;;;;;;5075192;28;20024;-67
2023/10/08 02:05:59;;;;;;;4.60;2.67;;;;;;;;;;5093187;28;20032;-67
2023/10/08 02:08:31;;;;;;;8.98;2.90;;;;;;;;;;5093302;28;20024;-68
2023/10/08 02:10:58;;;;;;;12.73;3.17;;;;;;;;;;5074942;28;20032;-68
2023/10/08 02:13:24;;;;;;;4.93;2.42;;;;;;;;;;5092969;28;20384;-68
2023/10/08 02:15:51;;;;;;;4.53;2.60;;;;;;;;;;5092765;28;20024;-67
2023/10/08 02:18:23;;;;;;;4.85;2.85;;;;;;;;;;5092750;28;20366;-67
2023/10/08 02:20:49;;;;;;;5.10;2.70;;;;;;;;;;5092889;28;20016;-67
2023/10/08 02:23:17;;;;;;;6.78;2.83;;;;;;;;;;5075069;28;20028;-67
2023/10/08 02:25:44;;;;;;;5.88;3.20;;;;;;;;;;5092492;28;20332;-68
2023/10/08 02:28:15;;;;;;;5.40;3.00;;;;;;;;;;5092551;28;20028;-67
2023/10/08 02:30:42;;;;;;;6.00;2.83;;;;;;;;;;5092810;28;20058;-67
2023/10/08 02:33:14;;;;;;;8.25;3.10;;;;;;;;;;5092631;28;20527;-67
2023/10/08 02:35:42;;;;;;;6.38;3.03;;;;;;;;;;5092757;28;20017;-67
2023/10/08 02:38:13;;;;;;;7.90;3.20;;;;;;;;;;5092802;28;20033;-67
2023/10/08 02:40:49;;;;;;;4.63;2.65;;;;;;;;;;5092298;28;20084;-67
2023/10/08 02:43:15;;;;;;;10.73;2.92;;;;;;;;;;5092625;28;20035;-67
2023/10/08 02:45:47;;;;;;;5.63;2.60;;;;;;;;;;5092776;28;20040;-67
2023/10/08 02:48:13;;;;;;;5.20;2.88;;;;;;;;;;5092600;28;20024;-67
2023/10/08 02:50:40;;;;;;;7.32;3.00;;;;;;;;;;5091663;28;20028;-67
2023/10/08 02:53:10;;;;;;;6.13;2.60;;;;;;;;;;5092410;28;20489;-66
2023/10/08 02:55:46;;;;;;;9.98;3.33;;;;;;;;;;5092434;28;20032;-67
2023/10/08 02:58:15;;;;;;;6.10;2.75;;;;;;;;;;5095587;28;20016;-68
2023/10/08 03:00:43;;;;;;;5.47;2.67;;;;;;;;;;5096944;28;20054;-67
2023/10/08 03:03:15;;;;;;;6.60;2.97;;;;;;;;;;5096738;28;20027;-67
2023/10/08 03:05:46;;;;;;;8.88;2.92;;;;;;;;;;5096887;28;20040;-67
2023/10/08 03:08:19;;;;;;;4.50;2.40;;;;;;;;;;5096077;28;20384;-67
2023/10/08 03:10:45;;;;;;;7.05;2.58;;;;;;;;;;5096230;28;20036;-67
2023/10/08 03:13:12;;;;;;;10.20;3.25;;;;;;;;;;5096690;28;20030;-67
2023/10/08 03:15:46;;;;;;;6.22;3.03;;;;;;;;;;5096076;28;20028;-68
2023/10/08 03:18:15;;;;;;;6.82;3.03;;;;;;;;;;5096483;28;20028;-67
2023/10/08 03:20:46;;;;;;;8.57;2.92;;;;;;;;;;5096448;28;20032;-67
2023/10/08 03:23:32;;;;;;;5.25;2.50;;;;;;;;;;5077784;28;20024;-67
2023/10/08 03:26:00;;;;;;;7.20;2.63;;;;;;;;;;5096079;28;20028;-67
2023/10/08 03:28:34;;;;;;;6.38;3.00;;;;;;;;;;5096041;28;20077;-67
2023/10/08 03:31:17;;;;;;;6.70;3.08;;;;;;;;;;5096172;28;20030;-67
2023/10/08 03:33:49;;;;;;;6.60;3.15;;;;;;;;;;5096090;28;20369;-67
2023/10/08 03:36:21;;;;;;;7.05;2.95;;;;;;;;;;5095897;28;20031;-67
2023/10/08 03:38:51;;;;;;;7.70;2.70;;;;;;;;;;5095439;28;20030;-68
2023/10/08 03:41:18;;;;;;;6.80;3.20;;;;;;;;;;5077664;28;20237;-67
2023/10/08 03:44:01;;;;;;;9.80;3.38;;;;;;;;;;5096425;28;20639;-67
2023/10/08 03:46:31;;;;;;;6.70;2.88;;;;;;;;;;5095817;28;20431;-67
2023/10/08 03:49:04;;;;;;;5.97;3.10;;;;;;;;;;5095738;28;20022;-67
2023/10/08 03:51:35;;;;;;;8.73;3.10;;;;;;;;;;5095491;28;20026;-67
2023/10/08 03:56:37;;;;;;;6.78;2.80;;;;;;;;;;5095772;28;20036;-67
2023/10/08 03:59:12;;;;;;;5.38;2.80;;;;;;;;;;5095725;28;20042;-68
2023/10/08 04:01:42;;;;;;;5.32;2.83;;;;;;;;;;5095362;28;20016;-67
2023/10/08 04:04:14;;;;;;;4.60;2.70;;;;;;;;;;5095369;28;20034;-67
2023/10/08 04:06:49;;;;;;;5.72;2.97;;;;;;;;;;5095039;28;20023;-67
2023/10/08 04:09:25;;;;;;;6.68;3.00;;;;;;;;;;5095435;28;20032;-67
2023/10/08 04:11:53;;;;;;;5.97;2.90;;;;;;;;;;5095515;28;20035;-67
2023/10/08 04:14:20;;;;;;;6.72;3.22;;;;;;;;;;5095332;28;20024;-67
2023/10/08 04:16:51;;;;;;;5.13;3.00;;;;;;;;;;5095175;28;20462;-68
2023/10/08 04:19:18;;;;;;;6.13;3.08;;;;;;;;;;5095093;28;20036;-67
2023/10/08 04:21:44;;;;;;;7.10;3.08;;;;;;;;;;5094628;28;20064;-67
2023/10/08 04:24:14;;;;;;;5.82;2.72;;;;;;;;;;5094964;28;20476;-67
2023/10/08 04:26:41;;;;;;;7.03;2.92;;;;;;;;;;5094924;28;20024;-67
2023/10/08 04:29:08;;;;;;;6.88;2.75;;;;;;;;;;5094820;28;20024;-67
2023/10/08 04:31:37;;;;;;;6.03;2.72;;;;;;;;;;5094819;28;20406;-67
2023/10/08 04:34:16;;;;;;;6.45;3.33;;;;;;;;;;5094832;28;20032;-67
2023/10/08 04:36:45;;;;;;;7.60;3.33;;;;;;;;;;5094450;28;20020;-67
2023/10/08 04:39:15;;;;;;;6.45;2.63;;;;;;;;;;5094839;28;20043;-68
2023/10/08 04:41:42;;;;;;;8.07;3.20;;;;;;;;;;5094882;28;20020;-67
2023/10/08 04:44:15;;;;;;;6.70;3.13;;;;;;;;;;5094848;28;20031;-67
2023/10/08 04:49:26;;;;;;;7.78;3.13;;;;;;;;;;5094604;28;20034;-67
2023/10/08 04:51:56;;;;;;;;;;;;;;;;;;5095008;28;20020;-67
2023/10/08 04:54:24;;;;;;;7.82;3.20;;;;;;;;;;5083485;28;19927;-67
2023/10/08 04:56:52;;;;;;;7.82;2.83;;;;;;;;;;5074164;28;20024;-67
2023/10/08 04:59:22;;;;;;;6.13;2.83;;;;;;;;;;5074167;28;20044;-67
2023/10/08 05:02:02;;;;;;;7.65;3.03;;;;;;;;;;5073637;28;20019;-67
2023/10/08 05:07:20;;;;;;;7.40;3.17;;;;;;;;;;5073963;28;20027;-67
2023/10/08 05:23:20;;;;;;;8.65;3.20;;;;;;;;;;5073999;28;20455;-67
2023/10/08 05:28:30;;;;;;;8.10;3.10;;;;;;;;;;5073352;28;20032;-67
2023/10/08 05:41:52;;;;;;;9.02;3.38;;;;;;;;;;5011450;28;20021;-68
2023/10/08 05:49:38;;;;;;;6.72;2.80;;;;;;;;;;5011172;28;20038;-67
2023/10/08 05:59:52;;;;;;;5.28;2.83;;;;;;;;;;5010904;28;20044;-67
2023/10/08 06:13:05;;;;;;;9.88;3.13;;;;;;;;;;5072630;28;20381;-67
2023/10/08 06:15:44;;;;;;;9.68;3.17;;;;;;;;;;5072520;28;20036;-68
2023/10/08 06:18:14;;;;;;;16.83;3.20;;;;;;;;;;5072526;28;20008;-67
2023/10/08 06:20:43;;;;;;;11.57;3.53;;;;;;;;;;5072633;28;20032;-67
2023/10/08 06:23:11;;;;;;;9.73;3.25;;;;;;;;;;5072748;28;20427;-67
2023/10/08 06:25:47;;;;;;;12.88;3.63;;;;;;;;;;5072556;28;20451;-67
2023/10/08 06:28:19;;;;;;;8.35;3.30;;;;;;;;;;5072744;28;20016;-67
2023/10/08 06:30:46;;;;;;;9.60;3.72;;;;;;;;;;5072292;28;20485;-67
2023/10/08 06:33:13;;;;;;;7.07;3.08;;;;;;;;;;5072140;28;20036;-67
2023/10/08 06:35:44;;;;;;;7.63;3.15;;;;;;;;;;5072401;28;20020;-67
2023/10/08 06:38:11;;;;;;;6.00;3.00;;;;;;;;;;5072535;28;20385;-67
2023/10/08 06:43:24;;;;;;;11.55;3.35;;;;;;;;;;5072772;28;20024;-67
2023/10/08 06:45:57;;;;;;;9.15;3.53;;;;;;;;;;5072035;28;20029;-67
2023/10/08 06:48:24;;;;;;;23.83;3.63;;;;;;;;;;5072548;28;20020;-68
2023/10/08 06:50:56;;;;;;;16.92;3.47;;;;;;;;;;5072332;28;20488;-68
2023/10/08 06:53:23;;;;;;;19.98;3.28;;;;;;;;;;5071940;28;20028;-67
2023/10/08 06:55:56;;;;;;;22.25;3.33;;;;;;;;;;5072377;28;20027;-67
2023/10/08 06:58:26;;;;;;;35.45;5.15;;;;;;;;;;5072159;28;20037;-67
2023/10/08 07:00:55;;;;;;;43.58;4.57;;;;;;;;;;5071852;28;20484;-67
2023/10/08 07:03:21;;;;;;;43.47;5.07;;;;;;;;;;5054544;28;20086;-67
2023/10/08 07:05:57;;;;;;;36.80;4.20;;;;;;;;;;5072611;28;20031;-67
2023/10/08 07:08:31;;;;;;;42.58;4.82;;;;;;;;;;5072448;28;20017;-69
2023/10/08 07:10:59;;;;;;;19.95;3.30;;;;;;;;;;5072232;28;20482;-67
2023/10/08 07:13:29;;;;;;;11.43;3.60;;;;;;;;;;5071949;28;20392;-67
2023/10/08 07:15:56;;;;;;;20.38;3.55;;;;;;;;;;5071683;28;20031;-67
2023/10/08 07:18:25;;;;;;;11.18;2.75;;;;;;;;;;5072332;28;20497;-67
2023/10/08 07:21:00;;;;;;;7.18;3.03;;;;;;;;;;5072322;28;20182;-67
2023/10/08 07:23:34;;;;;;;9.07;3.00;;;;;;;;;;5072179;28;20020;-67
2023/10/08 07:26:13;;;;;;;10.13;3.40;;;;;;;;;;5072244;28;20028;-68
2023/10/08 07:28:40;;;;;;;4.97;2.65;;;;;;;;;;5071809;28;20508;-68
2023/10/08 07:31:16;;;;;;;8.93;3.28;;;;;;;;;;5071748;28;20040;-68
2023/10/08 07:33:47;;;;;;;24.95;5.20;;;;;;;;;;5072292;28;20040;-68
2023/10/08 07:36:14;;;;;;;20.25;3.92;;;;;;;;;;5072092;28;20017;-68
2023/10/08 07:38:43;;;;;;;28.33;4.30;;;;;;;;;;5071616;28;20029;-68
2023/10/08 07:41:14;;;;;;;17.70;3.97;;;;;;;;;;5071842;28;20407;-68
2023/10/08 07:43:46;;;;;;;19.80;3.90;;;;;;;;;;5074796;28;20054;-68
2023/10/08 07:46:15;;;;;;;20.15;3.80;;;;;;;;;;5075745;28;20028;-68
2023/10/08 07:48:44;;;;;;;19.20;4.00;;;;;;;;;;5075456;28;20457;-68
2023/10/08 07:51:10;;;;;;;23.13;3.83;;;;;;;;;;5075326;28;20035;-68
2023/10/08 07:53:41;;;;;;;9.25;3.47;;;;;;;;;;5057352;28;20515;-68
2023/10/08 07:56:08;;;;;;;;;;;;;;;;;;5075660;28;20497;-68
2023/10/08 07:58:38;;;;;;;8.95;3.45;;;;;;;;;;5074946;28;20557;-68
2023/10/08 08:01:06;;;;;;;8.13;3.83;;;;;;;;;;5075715;28;20046;-68
2023/10/08 08:03:36;;;;;;;7.07;3.17;;;;;;;;;;5075014;28;20072;-68
2023/10/08 08:06:13;;;;;;;7.55;3.88;;;;;;;;;;5075062;28;20036;-68
2023/10/08 08:08:40;;;;;;;5.75;3.35;;;;;;;;;;5074912;28;20477;-68
2023/10/08 08:11:11;;;;;;;10.25;3.85;;;;;;;;;;5075392;28;20032;-68
2023/10/08 08:13:44;;;;;;;8.02;3.75;;;;;;;;;;5074841;28;20027;-68
2023/10/08 08:16:16;;;;;;;5.70;3.47;;;;;;;;;;5074958;28;20017;-68
2023/10/08 08:18:46;;;;;;;8.10;3.60;;;;;;;;;;5074933;28;20032;-68
2023/10/08 08:21:17;;;;;;;8.52;3.47;;;;;;;;;;5075043;28;20032;-69
2023/10/08 08:23:47;;;;;;;;;;;;;;;;;;5075129;28;20025;-69
2023/10/08 08:26:26;;;;;;;7.57;4.05;;;;;;;;;;5074658;28;19905;-68
2023/10/08 08:28:56;;;;;;;7.10;3.75;;;;;;;;;;5074373;28;20667;-69
2023/10/08 08:31:26;;;;;;;5.85;3.40;;;;;;;;;;5074903;28;20021;-68
2023/10/08 08:33:53;;;;;;;9.23;3.80;;;;;;;;;;5074552;28;20032;-68
2023/10/08 08:36:21;;;;;;;7.32;3.60;;;;;;;;;;5056876;28;20024;-68
2023/10/08 08:38:48;;;;;;;5.70;3.35;;;;;;;;;;5074194;28;20082;-68
2023/10/08 08:41:17;;;;;;;6.95;3.75;;;;;;;;;;5074564;28;20043;-69
2023/10/08 08:43:44;;;;;;;6.75;3.90;;;;;;;;;;5074133;28;20025;-69
2023/10/08 08:46:12;;;;;;;8.45;4.00;;;;;;;;;;5074670;28;20062;-68
2023/10/08 08:48:40;;;;;;;7.68;3.85;;;;;;;;;;5074569;28;20024;-69
2023/10/08 08:51:09;;;;;;;6.68;3.75;;;;;;;;;;5074288;28;20041;-68
2023/10/08 08:53:36;;;;;;;6.95;3.50;;;;;;;;;;5073185;28;20033;-66
2023/10/08 08:56:05;;;;;;;8.60;3.85;;;;;;;;;;5074154;28;20033;-66
2023/10/08 08:58:33;;;;;;;5.70;3.70;;;;;;;;;;5074209;28;20024;-67
2023/10/08 09:01:00;;;;;;;6.20;3.83;;;;;;;;;;5074320;28;20033;-67
2023/10/08 09:03:33;;;;;;;7.43;3.22;;;;;;;;;;5073775;28;20016;-66
2023/10/08 09:05:59;;;;;;;5.35;3.50;;;;;;;;;;5074156;28;20025;-67
2023/10/08 09:08:31;;;;;;;13.27;3.80;;;;;;;;;;5073997;28;20470;-66
2023/10/08 09:11:08;;;;;;;8.70;3.88;;;;;;;;;;5073372;28;20024;-67
2023/10/08 09:13:35;;;;;;;6.63;3.67;;;;;;;;;;5073855;28;20024;-67
2023/10/08 09:16:08;;;;;;;8.43;3.80;;;;;;;;;;5065851;28;20054;-66
2023/10/08 09:18:35;;;;;;;7.03;3.42;;;;;;;;;;5094022;28;20020;-67
2023/10/08 09:21:10;;;;;;;9.48;4.00;;;;;;;;;;5093912;28;20040;-66
2023/10/08 09:23:43;;;;;;;8.90;3.53;;;;;;;;;;5093815;28;20025;-67
2023/10/08 09:26:10;;;;;;;9.45;3.72;;;;;;;;;;5093614;28;20085;-66
2023/10/08 09:28:41;;;;;;;6.22;3.50;;;;;;;;;;5079857;28;20027;-66
2023/10/08 09:31:07;;;;;;;;;;;;;;;;;;5073703;28;20059;-66
2023/10/08 09:33:33;;;;;;;5.70;3.92;;;;;;;;;;5073364;28;20284;-67
2023/10/08 09:36:02;;;;;;;7.38;3.85;;;;;;;;;;5073287;28;20024;-66
2023/10/08 09:38:30;;;;;;;6.60;3.50;;;;;;;;;;5073247;28;20024;-66
2023/10/08 09:40:57;;;;;;;8.55;3.47;;;;;;;;;;5072567;28;20033;-66
2023/10/08 09:43:26;;;;;;;8.52;3.95;;;;;;;;;;5073231;28;20020;-66
2023/10/08 09:45:57;;;;;;;6.28;3.88;;;;;;;;;;5073328;28;20027;-66
2023/10/08 09:48:26;;;;;;;5.32;3.50;;;;;;;;;;5073225;28;20029;-66
2023/10/08 09:50:54;;;;;;;7.43;4.05;;;;;;;;;;5072929;28;20037;-66
2023/10/08 09:53:26;;;;;;;6.38;3.80;;;;;;;;;;5072851;28;20373;-67
2023/10/08 09:55:54;;;;;;;7.22;3.92;;;;;;;;;;5072446;28;20039;-66
2023/10/08 09:58:25;;;;;;;7.13;3.53;;;;;;;;;;5073073;28;20090;-67
2023/10/08 10:00:52;;;;;;;8.85;3.63;;;;;;;;;;5072467;28;20389;-69
2023/10/08 10:03:20;;;;;;;11.00;4.25;;;;;;;;;;5072887;28;20025;-68
2023/10/08 10:05:46;;;;;;;6.72;3.50;;;;;;;;;;5072715;28;20389;-68
2023/10/08 10:08:15;;;;;;;10.13;3.85;;;;;;;;;;5072855;28;20465;-68
2023/10/08 10:10:45;;;;;;;6.82;3.40;;;;;;;;;;5072803;28;20073;-68
2023/10/08 10:13:11;;;;;;;9.95;4.00;;;;;;;;;;5073063;28;20085;-68
2023/10/08 10:15:38;;;;;;;9.55;4.10;;;;;;;;;;5072467;28;20137;-69
2023/10/08 10:18:28;;;;;;;9.90;4.00;;;;;;;;;;5072960;28;20036;-69
2023/10/08 10:21:02;;;;;;;6.57;3.70;;;;;;;;;;5072643;28;20033;-68
2023/10/08 10:23:39;;;;;;;10.20;3.75;;;;;;;;;;5072229;28;20498;-69
2023/10/08 10:26:24;;;;;;;7.05;3.95;;;;;;;;;;5072479;28;20028;-69
2023/10/08 10:29:09;;;;;;;7.32;3.90;;;;;;;;;;5072315;28;20027;-69
2023/10/08 10:31:36;;;;;;;9.45;3.63;;;;;;;;;;5072463;28;20488;-68
2023/10/08 10:34:09;;;;;;;8.93;3.97;;;;;;;;;;5072866;28;20232;-69
2023/10/08 10:36:36;;;;;;;6.85;3.80;;;;;;;;;;5072780;28;20032;-69
2023/10/08 10:39:25;;;;;;;7.28;3.83;;;;;;;;;;5072334;28;20047;-69
2023/10/08 10:42:01;;;;;;;7.30;4.15;;;;;;;;;;5072306;28;20039;-68
2023/10/08 10:44:30;;;;;;;10.80;4.13;;;;;;;;;;5073007;28;20037;-68
2023/10/08 10:52:44;;;;;;;7.47;3.40;;;;;;;;;;5010384;28;20050;-69
2023/10/08 10:55:18;;;;;;;10.20;3.85;;;;;;;;;;5010620;28;20052;-69
2023/10/08 11:03:16;;;;;;;9.43;3.92;;;;;;;;;;5010286;28;20044;-69
2023/10/08 11:05:48;;;;;;;7.72;3.65;;;;;;;;;;5010467;28;20461;-69
2023/10/08 11:08:15;;;;;;;14.20;3.78;;;;;;;;;;5010038;28;20045;-69
2023/10/08 11:10:51;;;;;;;8.15;3.85;;;;;;;;;;5010409;28;20034;-69
2023/10/08 11:13:22;;;;;;;7.63;3.63;;;;;;;;;;4994157;28;20034;-69
2023/10/08 11:15:51;;;;;;;6.80;3.80;;;;;;;;;;5010165;28;20509;-69
2023/10/08 11:18:19;;;;;;;9.75;4.10;;;;;;;;;;5013344;28;20030;-67
2023/10/08 11:20:46;;;;;;;8.73;3.95;;;;;;;;;;5014101;28;20042;-67
2023/10/08 11:23:33;;;;;;;12.93;4.40;;;;;;;;;;5013921;28;20054;-67
2023/10/08 11:26:02;;;;;;;7.00;4.18;;;;;;;;;;5014033;28;20056;-67
2023/10/08 11:28:29;;;;;;;7.50;3.85;;;;;;;;;;5016888;28;20040;-67
2023/10/08 11:30:59;;;;;;;8.55;3.92;;;;;;;;;;5035876;28;20036;-67
2023/10/08 11:33:27;;;;;;;7.95;4.32;;;;;;;;;;5036004;28;20067;-67
2023/10/08 11:35:58;;;;;;;7.80;4.18;;;;;;;;;;5035349;28;20021;-67
2023/10/08 11:38:27;;;;;;;10.60;4.50;;;;;;;;;;5035882;28;20035;-67
2023/10/08 11:40:56;;;;;;;9.55;4.60;;;;;;;;;;5055447;28;20040;-67
2023/10/08 11:43:25;;;;;;;8.68;5.00;;;;;;;;;;5056158;28;20033;-67
2023/10/08 11:45:52;;;;;;;10.57;4.40;;;;;;;;;;5055599;28;20036;-68
2023/10/08 11:48:29;;;;;;;8.57;4.40;;;;;;;;;;5055440;28;20021;-68
2023/10/08 11:51:01;;;;;;;5.70;4.78;;;;;;;;;;5055278;28;20017;-68
2023/10/08 11:53:28;;;;;;;8.95;4.50;;;;;;;;;;5055683;28;20037;-68
2023/10/08 11:55:56;;;;;;;10.05;4.47;;;;;;;;;;5055426;28;20025;-68
2023/10/08 11:58:37;;;;;;;6.55;4.65;;;;;;;;;;5055784;28;20025;-67
2023/10/08 12:01:03;;;;;;;8.13;4.55;;;;;;;;;;5055166;28;20048;-67
2023/10/08 12:03:31;;;;;;;7.18;4.60;;;;;;;;;;5037504;28;20024;-68
2023/10/08 12:06:01;;;;;;;7.95;4.82;;;;;;;;;;5054674;28;20024;-67
2023/10/08 12:08:28;;;;;;;10.80;4.65;;;;;;;;;;5055059;28;20409;-67
2023/10/08 12:10:54;;;;;;;6.93;4.30;;;;;;;;;;5054992;28;20021;-68
2023/10/08 12:13:24;;;;;;;7.80;4.40;;;;;;;;;;5055081;28;20033;-68
2023/10/08 12:16:06;;;;;;;6.35;4.50;;;;;;;;;;5063509;28;20025;-68
2023/10/08 12:18:39;;;;;;;6.75;4.20;;;;;;;;;;5074871;28;20020;-68
2023/10/08 12:21:10;;;;;;;6.50;4.30;;;;;;;;;;5074604;28;20050;-67
2023/10/08 12:23:40;;;;;;;6.78;4.20;;;;;;;;;;5075048;28;20027;-67
2023/10/08 12:26:15;;;;;;;4.32;3.92;;;;;;;;;;5074703;28;20037;-68
2023/10/08 12:28:44;;;;;;;5.28;3.72;;;;;;;;;;5074688;28;20020;-68
2023/10/08 12:31:12;;;;;;;5.10;4.22;;;;;;;;;;5074858;28;20374;-68
2023/10/08 12:33:40;;;;;;;5.45;4.00;;;;;;;;;;5074057;28;20021;-68
2023/10/08 12:36:12;;;;;;;5.75;4.40;;;;;;;;;;5074607;28;20527;-68
2023/10/08 12:38:41;;;;;;;5.60;4.00;;;;;;;;;;5074425;28;20507;-68
2023/10/08 12:41:13;;;;;;;5.20;3.85;;;;;;;;;;5074931;28;20047;-68
2023/10/08 12:43:42;;;;;;;5.85;3.72;;;;;;;;;;5074629;28;20029;-68
2023/10/08 12:46:16;;;;;;;6.32;4.82;;;;;;;;;;5074912;28;20032;-68
2023/10/08 12:48:44;;;;;;;5.43;3.97;;;;;;;;;;5074037;28;20032;-68
2023/10/08 12:51:11;;;;;;;7.03;4.10;;;;;;;;;;5074685;28;20021;-68
2023/10/08 12:53:38;;;;;;;5.35;4.10;;;;;;;;;;5074188;28;20451;-68
2023/10/08 12:56:05;;;;;;;6.68;4.07;;;;;;;;;;5056695;28;20025;-68
2023/10/08 12:58:38;;;;;;;6.70;4.40;;;;;;;;;;5074307;28;20029;-68
2023/10/08 13:01:07;;;;;;;9.52;4.40;;;;;;;;;;5046326;28;20037;-68
2023/10/08 13:03:40;;;;;;;6.30;4.50;;;;;;;;;;5053767;28;20090;-68
2023/10/08 13:06:10;;;;;;;9.88;3.95;;;;;;;;;;5054035;28;20025;-68
2023/10/08 13:08:38;;;;;;;7.07;3.92;;;;;;;;;;5054005;28;20017;-68
2023/10/08 13:11:04;;;;;;;10.65;4.43;;;;;;;;;;5053833;28;20029;-67
2023/10/08 13:13:32;;;;;;;8.15;4.40;;;;;;;;;;5054115;28;20343;-67
2023/10/08 13:16:02;;;;;;;6.15;4.40;;;;;;;;;;5063589;28;20027;-68
2023/10/08 13:18:30;;;;;;;6.00;4.13;;;;;;;;;;5073670;28;20061;-68
2023/10/08 13:20:57;;;;;;;5.18;3.70;;;;;;;;;;5073383;28;20045;-68
2023/10/08 13:23:24;;;;;;;4.55;3.90;;;;;;;;;;5055637;28;20031;-68
2023/10/08 13:25:54;;;;;;;8.70;4.22;;;;;;;;;;5073583;28;20035;-68
2023/10/08 13:28:26;;;;;;;8.02;4.07;;;;;;;;;;5073657;28;20024;-68
2023/10/08 13:30:54;;;;;;;8.20;3.90;;;;;;;;;;5073367;28;20029;-67
2023/10/08 13:33:23;;;;;;;5.60;4.07;;;;;;;;;;5073055;28;20039;-68
2023/10/08 13:35:50;;;;;;;5.28;3.80;;;;;;;;;;5073563;28;20020;-68
2023/10/08 13:38:19;;;;;;;9.35;4.20;;;;;;;;;;5073263;28;20500;-67
2023/10/08 13:43:53;;;;;;;8.38;4.22;;;;;;;;;;5011675;28;20494;-67
2023/10/08 13:46:22;;;;;;;11.75;4.10;;;;;;;;;;5011197;28;20034;-67
2023/10/08 13:48:49;;;;;;;12.60;3.83;;;;;;;;;;5011425;28;20030;-67
2023/10/08 13:51:20;;;;;;;7.95;3.90;;;;;;;;;;5011252;28;20033;-67
2023/10/08 13:53:53;;;;;;;7.53;4.10;;;;;;;;;;5011455;28;20046;-67
2023/10/08 13:56:32;;;;;;;7.03;4.00;;;;;;;;;;5011315;28;20033;-67
2023/10/08 13:59:11;;;;;;;7.67;3.90;;;;;;;;;;5011241;28;20506;-66
2023/10/08 14:01:40;;;;;;;11.70;4.53;;;;;;;;;;5011278;28;20326;-67
2023/10/08 14:04:07;;;;;;;5.43;3.85;;;;;;;;;;5011063;28;20030;-67
2023/10/08 14:06:34;;;;;;;9.18;4.25;;;;;;;;;;5011316;28;20022;-67
2023/10/08 14:09:06;;;;;;;9.10;4.10;;;;;;;;;;5011041;28;20036;-67
2023/10/08 14:11:33;;;;;;;6.72;4.03;;;;;;;;;;5010957;28;20052;-67
2023/10/08 14:14:07;;;;;;;9.05;3.78;;;;;;;;;;5011011;28;20032;-67
2023/10/08 14:16:41;;;;;;;8.68;3.90;;;;;;;;;;5010769;28;20087;-67
2023/10/08 14:19:08;;;;;;;12.15;4.70;;;;;;;;;;5053038;28;20033;-67
2023/10/08 14:21:43;;;;;;;6.88;4.30;;;;;;;;;;5052572;28;20500;-67
2023/10/08 14:24:15;;;;;;;7.18;4.30;;;;;;;;;;5052603;28;20462;-67
2023/10/08 14:26:43;;;;;;;9.65;4.55;;;;;;;;;;5052529;28;20478;-67
2023/10/08 14:29:15;;;;;;;9.65;4.10;;;;;;;;;;5052724;28;20174;-67
2023/10/08 14:31:44;;;;;;;7.75;4.15;;;;;;;;;;5072485;28;20016;-67
2023/10/08 14:45:05;;;;;;;6.88;3.97;;;;;;;;;;5072096;28;20423;-67
2023/10/08 14:47:32;;;;;;;9.18;3.80;;;;;;;;;;5072268;28;20403;-67
2023/10/08 14:50:00;;;;;;;7.80;3.78;;;;;;;;;;5072667;28;20017;-67
2023/10/08 14:52:26;;;;;;;9.43;4.22;;;;;;;;;;5074259;28;20024;-67
2023/10/08 14:54:53;;;;;;;8.85;4.22;;;;;;;;;;5076392;28;20046;-67
2023/10/08 14:57:19;;;;;;;7.47;3.72;;;;;;;;;;5076759;28;20031;-67
2023/10/08 14:59:45;;;;;;;6.88;3.70;;;;;;;;;;5075900;28;20020;-67
2023/10/08 15:02:11;;;;;;;9.23;4.03;;;;;;;;;;5076585;28;20029;-67
2023/10/08 15:04:41;;;;;;;9.20;3.50;;;;;;;;;;5058137;28;20055;-67
2023/10/08 15:07:10;;;;;;;7.77;4.20;;;;;;;;;;5076831;28;20029;-67
2023/10/08 15:09:37;;;;;;;7.20;3.80;;;;;;;;;;5076147;28;20023;-67
2023/10/08 15:12:04;;;;;;;7.03;3.80;;;;;;;;;;5076108;28;20039;-67
2023/10/08 15:14:31;;;;;;;6.43;4.03;;;;;;;;;;5075759;28;20025;-67
2023/10/08 15:16:57;;;;;;;6.95;3.88;;;;;;;;;;5075954;28;20042;-67
2023/10/08 15:19:24;;;;;;;7.88;3.95;;;;;;;;;;5075766;28;20024;-67
2023/10/08 15:21:50;;;;;;;6.40;3.63;;;;;;;;;;5075965;28;20021;-67
2023/10/08 15:24:18;;;;;;;8.98;4.00;;;;;;;;;;5075779;28;20021;-67
2023/10/08 15:26:44;;;;;;;8.60;4.20;;;;;;;;;;5076121;28;20028;-67
2023/10/08 15:29:13;;;;;;;8.00;4.55;;;;;;;;;;5075310;28;20012;-67
2023/10/08 15:31:40;;;;;;;11.52;4.38;;;;;;;;;;5075685;28;20029;-67
2023/10/08 15:34:06;;;;;;;8.35;4.10;;;;;;;;;;5075818;28;20025;-67
2023/10/08 15:36:33;;;;;;;13.90;4.40;;;;;;;;;;5057764;28;20035;-67
2023/10/08 15:38:59;;;;;;;18.42;3.92;;;;;;;;;;5075736;28;20020;-67
2023/10/08 15:41:27;;;;;;;6.00;3.90;;;;;;;;;;5075294;28;20029;-67
2023/10/08 15:43:58;;;;;;;13.02;4.18;;;;;;;;;;5075126;28;20499;-67
2023/10/08 15:46:27;;;;;;;11.23;4.18;;;;;;;;;;5075411;28;20029;-67
2023/10/08 15:48:53;;;;;;;7.53;4.03;;;;;;;;;;5057681;28;20031;-67
2023/10/08 15:51:20;;;;;;;7.88;4.30;;;;;;;;;;5075563;28;20054;-67
2023/10/08 15:53:47;;;;;;;8.48;4.00;;;;;;;;;;5075397;28;20050;-67
2023/10/08 15:56:13;;;;;;;12.82;3.78;;;;;;;;;;5075134;28;20036;-67
2023/10/08 15:58:40;;;;;;;7.70;3.90;;;;;;;;;;5075287;28;20035;-67
2023/10/08 16:01:07;;;;;;;9.05;3.67;;;;;;;;;;5074961;28;20028;-67
2023/10/08 16:03:33;;;;;;;7.57;3.95;;;;;;;;;;5074629;28;20450;-67
2023/10/08 16:05:59;;;;;;;5.65;3.95;;;;;;;;;;5075427;28;20481;-67
2023/10/08 16:08:26;;;;;;;8.13;3.92;;;;;;;;;;5057694;28;20025;-67
2023/10/08 16:10:52;;;;;;;8.98;4.47;;;;;;;;;;5074640;28;20086;-67
2023/10/08 16:13:18;;;;;;;8.80;4.32;;;;;;;;;;5075078;28;20070;-67
2023/10/08 16:15:45;;;;;;;10.20;3.80;;;;;;;;;;5074848;28;20396;-67
2023/10/08 16:18:11;;;;;;;12.35;4.07;;;;;;;;;;5074891;28;20483;-67
2023/10/08 16:20:39;;;;;;;8.77;4.10;;;;;;;;;;5074872;28;20035;-67
2023/10/08 16:23:07;;;;;;;9.30;3.65;;;;;;;;;;5075025;28;20027;-67
2023/10/08 16:25:33;;;;;;;8.13;4.30;;;;;;;;;;5074826;28;20032;-66